CheckWX is a tool to help pilots better visualize weather data.  It is not intended as a substitute for an official pre-flight weather briefing.

03:33:55 UTC

FQLC TAF
Lichinga Airport
Lichinga, Mozambique
TAF FQLC 212200Z 2200/2224 VRB02KT 9999 FEW020 TX25/2213Z TN14/2203Z PROB30 TEMPO 2200/2206 0900 FG FEW010 BECMG 2206/2208 03008KT BECMG 2212/2214 21010KT

May-22@
00:00 UTC

May-22 @ 00:00 UTC

May-22@
06:00 UTC

May-22 @ 06:00 UTC

TAF FQLC 212200Z 2200/2224 VRB02KT 9999 FEW020 TX25/2213Z TN14/2203Z
Wind
  • Variable at 2 KTS
Cloud Levels
  • Few at 2,000' AGL

May-22@
00:00 UTC

May-22 @ 00:00 UTC

May-22@
06:00 UTC

May-22 @ 06:00 UTC

PROB30 TEMPO 2200/2206 0900 FG FEW010

Temporary - 30% Likelihood

Temporary - 30% Likelihood during this time.

Conditions
Fog
Cloud Levels
  • Few at 1,000' AGL

May-22@
06:00 UTC

May-22 @ 06:00 UTC

May-22@
12:00 UTC

May-22 @ 12:00 UTC

BECMG 2206/2208 03008KT

Becoming

Becoming Conditions expected by Wed, May 22, 2019 @ 08:00 UTC

Wind
  • 030° at 8 KTS
Cloud Levels
  • Few at 2,000' AGL

May-22@
12:00 UTC

May-22 @ 12:00 UTC

May-23@
00:00 UTC

May-23 @ 00:00 UTC

BECMG 2212/2214 21010KT

Becoming

Becoming Conditions expected by Wed, May 22, 2019 @ 14:00 UTC

Wind
  • 210° at 10 KTS
Cloud Levels
  • Few at 2,000' AGL